sensor_id;sensor_type;location;lat;lon;timestamp;temperature;humidity
22319;DHT22;11327;52.334;9.506;2022-10-31T00:01:45;16.10;99.90
22319;DHT22;11327;52.334;9.506;2022-10-31T00:05:07;16.10;99.90
22319;DHT22;11327;52.334;9.506;2022-10-31T00:08:28;16.00;99.90
22319;DHT22;11327;52.334;9.506;2022-10-31T00:11:49;16.00;99.90
22319;DHT22;11327;52.334;9.506;2022-10-31T00:15:10;16.00;99.90
22319;DHT22;11327;52.334;9.506;2022-10-31T00:18:31;16.00;99.90
22319;DHT22;11327;52.334;9.506;2022-10-31T00:21:52;16.00;99.90
22319;DHT22;11327;52.334;9.506;2022-10-31T00:25:13;16.00;99.90
22319;DHT22;11327;52.334;9.506;2022-10-31T00:28:34;16.00;99.90
22319;DHT22;11327;52.334;9.506;2022-10-31T00:31:55;16.00;99.90
22319;DHT22;11327;52.334;9.506;2022-10-31T00:35:16;16.00;99.90
22319;DHT22;11327;52.334;9.506;2022-10-31T00:38:37;15.90;99.90
22319;DHT22;11327;52.334;9.506;2022-10-31T00:41:58;15.90;99.90
22319;DHT22;11327;52.334;9.506;2022-10-31T00:45:18;15.90;99.90
22319;DHT22;11327;52.334;9.506;2022-10-31T00:48:40;15.80;99.90
22319;DHT22;11327;52.334;9.506;2022-10-31T00:52:01;15.80;99.90
22319;DHT22;11327;52.334;9.506;2022-10-31T00:55:22;15.80;99.90
22319;DHT22;11327;52.334;9.506;2022-10-31T00:58:43;15.80;99.90
22319;DHT22;11327;52.334;9.506;2022-10-31T01:02:04;15.80;99.90
22319;DHT22;11327;52.334;9.506;2022-10-31T01:05:24;15.80;99.90
22319;DHT22;11327;52.334;9.506;2022-10-31T01:08:47;15.80;99.90
22319;DHT22;11327;52.334;9.506;2022-10-31T01:12:08;15.80;99.90
22319;DHT22;11327;52.334;9.506;2022-10-31T01:15:29;15.80;99.90
22319;DHT22;11327;52.334;9.506;2022-10-31T01:18:50;15.80;99.90
22319;DHT22;11327;52.334;9.506;2022-10-31T01:22:11;15.90;99.90
22319;DHT22;11327;52.334;9.506;2022-10-31T01:25:32;15.80;99.90
22319;DHT22;11327;52.334;9.506;2022-10-31T01:28:56;15.90;99.90
22319;DHT22;11327;52.334;9.506;2022-10-31T01:32:17;15.90;99.90
22319;DHT22;11327;52.334;9.506;2022-10-31T01:35:38;16.00;99.90
22319;DHT22;11327;52.334;9.506;2022-10-31T01:39:02;16.00;99.90
22319;DHT22;11327;52.334;9.506;2022-10-31T01:42:23;16.00;99.90
22319;DHT22;11327;52.334;9.506;2022-10-31T01:45:48;16.00;99.90
22319;DHT22;11327;52.334;9.506;2022-10-31T01:49:14;16.00;99.90
22319;DHT22;11327;52.334;9.506;2022-10-31T01:52:47;16.00;99.90
22319;DHT22;11327;52.334;9.506;2022-10-31T01:56:09;15.90;99.90
22319;DHT22;11327;52.334;9.506;2022-10-31T01:59:32;15.90;99.90
22319;DHT22;11327;52.334;9.506;2022-10-31T02:02:55;15.90;99.90
22319;DHT22;11327;52.334;9.506;2022-10-31T02:06:33;15.90;99.90
22319;DHT22;11327;52.334;9.506;2022-10-31T02:09:54;15.80;99.90
22319;DHT22;11327;52.334;9.506;2022-10-31T02:13:17;15.80;99.90
22319;DHT22;11327;52.334;9.506;2022-10-31T02:16:39;15.70;99.90
22319;DHT22;11327;52.334;9.506;2022-10-31T02:42:26;15.40;99.90
22319;DHT22;11327;52.334;9.506;2022-10-31T02:52:52;15.20;99.90
22319;DHT22;11327;52.334;9.506;2022-10-31T02:56:19;15.20;99.90
22319;DHT22;11327;52.334;9.506;2022-10-31T02:59:45;15.10;99.90
22319;DHT22;11327;52.334;9.506;2022-10-31T03:10:12;15.00;99.90
22319;DHT22;11327;52.334;9.506;2022-10-31T03:17:03;14.90;99.90
22319;DHT22;11327;52.334;9.506;2022-10-31T03:20:33;14.80;99.90
22319;DHT22;11327;52.334;9.506;2022-10-31T03:23:53;14.70;99.90
22319;DHT22;11327;52.334;9.506;2022-10-31T03:27:18;14.60;99.90
22319;DHT22;11327;52.334;9.506;2022-10-31T03:30:43;14.60;99.90
22319;DHT22;11327;52.334;9.506;2022-10-31T03:34:06;14.60;99.90
22319;DHT22;11327;52.334;9.506;2022-10-31T03:37:30;14.50;99.90
22319;DHT22;11327;52.334;9.506;2022-10-31T03:40:54;14.50;99.90
22319;DHT22;11327;52.334;9.506;2022-10-31T03:44:18;14.50;99.90
22319;DHT22;11327;52.334;9.506;2022-10-31T03:47:41;14.40;99.90
22319;DHT22;11327;52.334;9.506;2022-10-31T03:54:42;14.30;99.90
22319;DHT22;11327;52.334;9.506;2022-10-31T03:58:10;14.30;99.90
22319;DHT22;11327;52.334;9.506;2022-10-31T04:01:34;14.20;99.90
22319;DHT22;11327;52.334;9.506;2022-10-31T04:04:57;14.20;99.90
22319;DHT22;11327;52.334;9.506;2022-10-31T04:08:21;14.10;99.90
22319;DHT22;11327;52.334;9.506;2022-10-31T04:11:46;14.10;99.90
22319;DHT22;11327;52.334;9.506;2022-10-31T04:15:08;14.10;99.90
22319;DHT22;11327;52.334;9.506;2022-10-31T04:18:30;14.10;99.90
22319;DHT22;11327;52.334;9.506;2022-10-31T04:21:51;14.10;99.90
22319;DHT22;11327;52.334;9.506;2022-10-31T04:25:12;14.00;99.90
22319;DHT22;11327;52.334;9.506;2022-10-31T04:28:33;14.00;99.90
22319;DHT22;11327;52.334;9.506;2022-10-31T04:31:54;14.00;99.90
22319;DHT22;11327;52.334;9.506;2022-10-31T04:35:15;14.00;99.90
22319;DHT22;11327;52.334;9.506;2022-10-31T04:38:36;13.90;99.90
22319;DHT22;11327;52.334;9.506;2022-10-31T04:41:57;13.80;99.90
22319;DHT22;11327;52.334;9.506;2022-10-31T04:45:18;13.80;99.90
22319;DHT22;11327;52.334;9.506;2022-10-31T04:48:39;13.60;99.90
22319;DHT22;11327;52.334;9.506;2022-10-31T04:52:00;13.50;99.90
22319;DHT22;11327;52.334;9.506;2022-10-31T04:55:21;13.50;99.90
22319;DHT22;11327;52.334;9.506;2022-10-31T04:58:42;13.40;99.90
22319;DHT22;11327;52.334;9.506;2022-10-31T05:02:03;13.50;99.90
22319;DHT22;11327;52.334;9.506;2022-10-31T05:05:26;13.40;99.90
22319;DHT22;11327;52.334;9.506;2022-10-31T05:08:47;13.30;99.90
22319;DHT22;11327;52.334;9.506;2022-10-31T05:12:08;13.30;99.90
22319;DHT22;11327;52.334;9.506;2022-10-31T05:15:30;13.20;99.90
22319;DHT22;11327;52.334;9.506;2022-10-31T05:18:51;13.20;99.90
22319;DHT22;11327;52.334;9.506;2022-10-31T05:22:12;13.20;99.90
22319;DHT22;11327;52.334;9.506;2022-10-31T05:25:33;13.10;99.90
22319;DHT22;11327;52.334;9.506;2022-10-31T05:28:54;13.00;99.90
22319;DHT22;11327;52.334;9.506;2022-10-31T05:32:15;12.90;99.90
22319;DHT22;11327;52.334;9.506;2022-10-31T05:35:36;12.90;99.90
22319;DHT22;11327;52.334;9.506;2022-10-31T05:38:57;12.80;99.90
22319;DHT22;11327;52.334;9.506;2022-10-31T05:42:18;12.80;99.90
22319;DHT22;11327;52.334;9.506;2022-10-31T05:45:38;12.70;99.90
22319;DHT22;11327;52.334;9.506;2022-10-31T05:48:59;12.70;99.90
22319;DHT22;11327;52.334;9.506;2022-10-31T05:52:20;12.70;99.90
22319;DHT22;11327;52.334;9.506;2022-10-31T05:55:42;12.60;99.90
22319;DHT22;11327;52.334;9.506;2022-10-31T05:59:03;12.70;99.90
22319;DHT22;11327;52.334;9.506;2022-10-31T06:02:24;12.60;99.90
22319;DHT22;11327;52.334;9.506;2022-10-31T06:05:47;12.60;99.90
22319;DHT22;11327;52.334;9.506;2022-10-31T06:09:08;12.60;99.90
22319;DHT22;11327;52.334;9.506;2022-10-31T06:12:29;12.60;99.90
22319;DHT22;11327;52.334;9.506;2022-10-31T06:15:50;12.50;99.90
22319;DHT22;11327;52.334;9.506;2022-10-31T06:19:11;12.50;99.90
22319;DHT22;11327;52.334;9.506;2022-10-31T06:22:32;12.40;99.90
22319;DHT22;11327;52.334;9.506;2022-10-31T06:25:53;12.40;99.90
22319;DHT22;11327;52.334;9.506;2022-10-31T06:29:14;12.40;99.90
22319;DHT22;11327;52.334;9.506;2022-10-31T06:32:35;12.40;99.90
22319;DHT22;11327;52.334;9.506;2022-10-31T06:35:56;12.30;99.90
22319;DHT22;11327;52.334;9.506;2022-10-31T06:39:17;12.40;99.90
22319;DHT22;11327;52.334;9.506;2022-10-31T06:42:38;12.30;99.90
22319;DHT22;11327;52.334;9.506;2022-10-31T06:46:04;12.30;99.90
22319;DHT22;11327;52.334;9.506;2022-10-31T06:49:25;12.30;99.90
22319;DHT22;11327;52.334;9.506;2022-10-31T06:52:53;12.20;99.90
22319;DHT22;11327;52.334;9.506;2022-10-31T06:56:14;12.30;99.90
22319;DHT22;11327;52.334;9.506;2022-10-31T06:59:35;12.20;99.90
22319;DHT22;11327;52.334;9.506;2022-10-31T07:03:02;12.20;99.90
22319;DHT22;11327;52.334;9.506;2022-10-31T07:06:23;12.10;99.90
22319;DHT22;11327;52.334;9.506;2022-10-31T07:09:44;12.10;99.90
22319;DHT22;11327;52.334;9.506;2022-10-31T07:13:09;12.20;99.90
22319;DHT22;11327;52.334;9.506;2022-10-31T07:16:29;12.20;99.90
22319;DHT22;11327;52.334;9.506;2022-10-31T07:19:50;12.30;99.90
22319;DHT22;11327;52.334;9.506;2022-10-31T07:23:11;12.30;99.90
22319;DHT22;11327;52.334;9.506;2022-10-31T07:26:32;12.30;99.90
22319;DHT22;11327;52.334;9.506;2022-10-31T07:29:53;12.40;99.90
22319;DHT22;11327;52.334;9.506;2022-10-31T07:33:14;12.50;99.90
22319;DHT22;11327;52.334;9.506;2022-10-31T07:36:35;12.50;99.90
22319;DHT22;11327;52.334;9.506;2022-10-31T07:39:56;12.50;99.90
22319;DHT22;11327;52.334;9.506;2022-10-31T07:43:17;12.60;99.90
22319;DHT22;11327;52.334;9.506;2022-10-31T07:46:38;12.60;99.90
22319;DHT22;11327;52.334;9.506;2022-10-31T07:49:59;12.60;99.90
22319;DHT22;11327;52.334;9.506;2022-10-31T07:53:20;12.60;99.90
22319;DHT22;11327;52.334;9.506;2022-10-31T07:56:41;12.70;99.90
22319;DHT22;11327;52.334;9.506;2022-10-31T08:00:03;12.80;99.90
22319;DHT22;11327;52.334;9.506;2022-10-31T08:03:24;12.80;99.90
22319;DHT22;11327;52.334;9.506;2022-10-31T08:06:45;12.90;99.90
22319;DHT22;11327;52.334;9.506;2022-10-31T08:10:08;12.90;99.90
22319;DHT22;11327;52.334;9.506;2022-10-31T08:13:29;13.00;99.90
22319;DHT22;11327;52.334;9.506;2022-10-31T08:16:52;13.20;99.90
22319;DHT22;11327;52.334;9.506;2022-10-31T08:20:13;13.30;99.90
22319;DHT22;11327;52.334;9.506;2022-10-31T08:23:34;13.30;99.90
22319;DHT22;11327;52.334;9.506;2022-10-31T08:26:55;13.40;99.90
22319;DHT22;11327;52.334;9.506;2022-10-31T08:30:16;13.50;99.90
22319;DHT22;11327;52.334;9.506;2022-10-31T08:33:37;13.60;99.90
22319;DHT22;11327;52.334;9.506;2022-10-31T08:36:58;13.70;99.90
22319;DHT22;11327;52.334;9.506;2022-10-31T08:40:19;13.90;99.90
22319;DHT22;11327;52.334;9.506;2022-10-31T08:43:40;13.90;99.90
22319;DHT22;11327;52.334;9.506;2022-10-31T08:47:01;14.00;99.90
22319;DHT22;11327;52.334;9.506;2022-10-31T08:50:22;14.10;99.90
22319;DHT22;11327;52.334;9.506;2022-10-31T08:53:43;14.30;99.90
22319;DHT22;11327;52.334;9.506;2022-10-31T08:57:04;14.40;99.90
22319;DHT22;11327;52.334;9.506;2022-10-31T09:00:25;14.60;99.90
22319;DHT22;11327;52.334;9.506;2022-10-31T09:03:46;14.80;99.90
22319;DHT22;11327;52.334;9.506;2022-10-31T09:07:07;14.90;99.90
22319;DHT22;11327;52.334;9.506;2022-10-31T09:10:28;15.00;99.90
22319;DHT22;11327;52.334;9.506;2022-10-31T09:13:52;15.10;99.90
22319;DHT22;11327;52.334;9.506;2022-10-31T09:17:13;15.30;99.90
22319;DHT22;11327;52.334;9.506;2022-10-31T09:20:36;15.40;99.90
22319;DHT22;11327;52.334;9.506;2022-10-31T09:23:57;15.50;99.90
22319;DHT22;11327;52.334;9.506;2022-10-31T09:27:18;15.60;99.90
22319;DHT22;11327;52.334;9.506;2022-10-31T09:30:39;15.70;99.90
22319;DHT22;11327;52.334;9.506;2022-10-31T09:34:00;15.70;99.90
22319;DHT22;11327;52.334;9.506;2022-10-31T09:37:21;15.80;99.90
22319;DHT22;11327;52.334;9.506;2022-10-31T09:41:08;15.90;99.90
22319;DHT22;11327;52.334;9.506;2022-10-31T09:51:58;15.80;99.90
22319;DHT22;11327;52.334;9.506;2022-10-31T09:55:29;15.80;99.90
22319;DHT22;11327;52.334;9.506;2022-10-31T09:58:48;15.80;99.90
22319;DHT22;11327;52.334;9.506;2022-10-31T10:02:24;15.80;99.90
22319;DHT22;11327;52.334;9.506;2022-10-31T10:06:04;15.80;99.90
22319;DHT22;11327;52.334;9.506;2022-10-31T10:09:24;15.80;99.90
22319;DHT22;11327;52.334;9.506;2022-10-31T10:30:44;16.20;99.90
22319;DHT22;11327;52.334;9.506;2022-10-31T10:34:28;16.20;99.90
22319;DHT22;11327;52.334;9.506;2022-10-31T10:37:46;16.20;99.90
22319;DHT22;11327;52.334;9.506;2022-10-31T10:41:16;16.20;99.90
22319;DHT22;11327;52.334;9.506;2022-10-31T10:44:43;16.20;99.90
22319;DHT22;11327;52.334;9.506;2022-10-31T10:52:03;16.20;99.90
22319;DHT22;11327;52.334;9.506;2022-10-31T10:55:32;16.30;99.90
22319;DHT22;11327;52.334;9.506;2022-10-31T10:58:50;16.20;99.90
22319;DHT22;11327;52.334;9.506;2022-10-31T11:02:22;16.30;99.90
22319;DHT22;11327;52.334;9.506;2022-10-31T11:09:09;16.60;99.90
22319;DHT22;11327;52.334;9.506;2022-10-31T11:12:33;16.60;99.90
22319;DHT22;11327;52.334;9.506;2022-10-31T11:16:09;16.80;99.90
22319;DHT22;11327;52.334;9.506;2022-10-31T11:19:30;16.90;99.90
22319;DHT22;11327;52.334;9.506;2022-10-31T11:23:00;17.20;99.90
22319;DHT22;11327;52.334;9.506;2022-10-31T11:26:19;17.30;99.90
22319;DHT22;11327;52.334;9.506;2022-10-31T11:29:40;17.40;99.90
22319;DHT22;11327;52.334;9.506;2022-10-31T11:33:01;17.50;99.90
22319;DHT22;11327;52.334;9.506;2022-10-31T11:36:25;17.60;99.90
22319;DHT22;11327;52.334;9.506;2022-10-31T11:39:55;17.60;99.90
22319;DHT22;11327;52.334;9.506;2022-10-31T11:43:17;17.60;99.90
22319;DHT22;11327;52.334;9.506;2022-10-31T11:46:41;17.50;99.90
22319;DHT22;11327;52.334;9.506;2022-10-31T11:50:09;17.50;99.90
22319;DHT22;11327;52.334;9.506;2022-10-31T11:53:30;17.50;99.90
22319;DHT22;11327;52.334;9.506;2022-10-31T11:56:52;17.40;99.90
22319;DHT22;11327;52.334;9.506;2022-10-31T12:00:26;17.40;99.90
22319;DHT22;11327;52.334;9.506;2022-10-31T12:04:10;17.40;99.90
22319;DHT22;11327;52.334;9.506;2022-10-31T12:07:31;17.40;99.90
22319;DHT22;11327;52.334;9.506;2022-10-31T12:18:53;17.40;99.90
22319;DHT22;11327;52.334;9.506;2022-10-31T12:26:12;17.40;99.90
22319;DHT22;11327;52.334;9.506;2022-10-31T12:33:29;17.40;99.90
22319;DHT22;11327;52.334;9.506;2022-10-31T12:44:40;17.80;99.90
22319;DHT22;11327;52.334;9.506;2022-10-31T12:48:18;17.80;99.90
22319;DHT22;11327;52.334;9.506;2022-10-31T12:59:07;17.70;99.90
22319;DHT22;11327;52.334;9.506;2022-10-31T13:02:51;17.70;99.90
22319;DHT22;11327;52.334;9.506;2022-10-31T13:06:17;17.70;99.90
22319;DHT22;11327;52.334;9.506;2022-10-31T13:09:45;17.70;99.90
22319;DHT22;11327;52.334;9.506;2022-10-31T13:16:40;17.80;99.90
22319;DHT22;11327;52.334;9.506;2022-10-31T13:20:05;17.70;99.90
22319;DHT22;11327;52.334;9.506;2022-10-31T13:23:31;17.70;99.90
22319;DHT22;11327;52.334;9.506;2022-10-31T13:26:54;17.70;99.90
22319;DHT22;11327;52.334;9.506;2022-10-31T13:30:21;17.60;99.90
22319;DHT22;11327;52.334;9.506;2022-10-31T13:33:46;17.60;99.90
22319;DHT22;11327;52.334;9.506;2022-10-31T13:51:28;17.70;99.90
22319;DHT22;11327;52.334;9.506;2022-10-31T13:54:51;17.70;99.90
22319;DHT22;11327;52.334;9.506;2022-10-31T13:58:20;17.70;99.90
22319;DHT22;11327;52.334;9.506;2022-10-31T14:01:48;17.70;99.90
22319;DHT22;11327;52.334;9.506;2022-10-31T14:08:47;17.70;99.90
22319;DHT22;11327;52.334;9.506;2022-10-31T14:16:01;17.60;99.90
22319;DHT22;11327;52.334;9.506;2022-10-31T14:19:23;17.70;99.90
22319;DHT22;11327;52.334;9.506;2022-10-31T14:22:45;17.60;99.90
22319;DHT22;11327;52.334;9.506;2022-10-31T14:29:49;17.40;99.90
22319;DHT22;11327;52.334;9.506;2022-10-31T14:33:15;17.30;99.90
22319;DHT22;11327;52.334;9.506;2022-10-31T14:40:41;17.40;99.90
22319;DHT22;11327;52.334;9.506;2022-10-31T14:51:41;17.10;99.90
22319;DHT22;11327;52.334;9.506;2022-10-31T14:55:05;17.10;99.90
22319;DHT22;11327;52.334;9.506;2022-10-31T15:05:40;16.90;99.90
22319;DHT22;11327;52.334;9.506;2022-10-31T15:08:59;16.90;99.90
22319;DHT22;11327;52.334;9.506;2022-10-31T15:12:32;16.90;99.90
22319;DHT22;11327;52.334;9.506;2022-10-31T15:15:55;16.90;99.90
22319;DHT22;11327;52.334;9.506;2022-10-31T15:19:22;16.80;99.90
22319;DHT22;11327;52.334;9.506;2022-10-31T15:22:43;16.70;99.90
22319;DHT22;11327;52.334;9.506;2022-10-31T15:26:05;16.60;99.90
22319;DHT22;11327;52.334;9.506;2022-10-31T15:29:27;16.60;99.90
22319;DHT22;11327;52.334;9.506;2022-10-31T15:32:48;16.50;99.90
22319;DHT22;11327;52.334;9.506;2022-10-31T15:36:21;16.50;99.90
22319;DHT22;11327;52.334;9.506;2022-10-31T15:39:43;16.40;99.90
22319;DHT22;11327;52.334;9.506;2022-10-31T15:43:05;16.30;99.90
22319;DHT22;11327;52.334;9.506;2022-10-31T15:46:28;16.30;99.90
22319;DHT22;11327;52.334;9.506;2022-10-31T15:49:52;16.30;99.90
22319;DHT22;11327;52.334;9.506;2022-10-31T15:53:36;16.30;99.90
22319;DHT22;11327;52.334;9.506;2022-10-31T15:56:58;16.20;99.90
22319;DHT22;11327;52.334;9.506;2022-10-31T16:04:02;16.10;99.90
22319;DHT22;11327;52.334;9.506;2022-10-31T16:07:23;16.10;99.90
22319;DHT22;11327;52.334;9.506;2022-10-31T16:10:44;15.90;99.90
22319;DHT22;11327;52.334;9.506;2022-10-31T16:17:40;15.80;99.90
22319;DHT22;11327;52.334;9.506;2022-10-31T16:21:00;15.80;99.90
22319;DHT22;11327;52.334;9.506;2022-10-31T16:24:28;15.80;99.90
22319;DHT22;11327;52.334;9.506;2022-10-31T16:27:51;15.80;99.90
22319;DHT22;11327;52.334;9.506;2022-10-31T16:31:13;15.70;99.90
22319;DHT22;11327;52.334;9.506;2022-10-31T16:34:34;15.70;99.90
22319;DHT22;11327;52.334;9.506;2022-10-31T16:37:55;15.70;99.90
22319;DHT22;11327;52.334;9.506;2022-10-31T16:41:17;15.70;99.90
22319;DHT22;11327;52.334;9.506;2022-10-31T16:44:38;15.70;99.90
22319;DHT22;11327;52.334;9.506;2022-10-31T16:48:08;15.70;99.90
22319;DHT22;11327;52.334;9.506;2022-10-31T16:51:28;15.50;99.90
22319;DHT22;11327;52.334;9.506;2022-10-31T16:54:50;15.50;99.90
22319;DHT22;11327;52.334;9.506;2022-10-31T16:58:14;15.40;99.90
22319;DHT22;11327;52.334;9.506;2022-10-31T17:01:35;15.50;99.90
22319;DHT22;11327;52.334;9.506;2022-10-31T17:04:56;15.40;99.90
22319;DHT22;11327;52.334;9.506;2022-10-31T17:08:17;15.40;99.90
22319;DHT22;11327;52.334;9.506;2022-10-31T17:11:42;15.30;99.90
22319;DHT22;11327;52.334;9.506;2022-10-31T17:15:03;15.30;99.90
22319;DHT22;11327;52.334;9.506;2022-10-31T17:18:25;15.30;99.90
22319;DHT22;11327;52.334;9.506;2022-10-31T17:21:47;15.40;99.90
22319;DHT22;11327;52.334;9.506;2022-10-31T17:25:14;15.40;99.90
22319;DHT22;11327;52.334;9.506;2022-10-31T17:28:32;15.30;99.90
22319;DHT22;11327;52.334;9.506;2022-10-31T17:31:53;15.40;99.90
22319;DHT22;11327;52.334;9.506;2022-10-31T17:35:15;15.50;99.90
22319;DHT22;11327;52.334;9.506;2022-10-31T17:38:37;15.50;99.90
22319;DHT22;11327;52.334;9.506;2022-10-31T17:41:58;15.50;99.90
22319;DHT22;11327;52.334;9.506;2022-10-31T17:45:19;15.40;99.90
22319;DHT22;11327;52.334;9.506;2022-10-31T17:48:41;15.40;99.90
22319;DHT22;11327;52.334;9.506;2022-10-31T17:52:01;15.40;99.90
22319;DHT22;11327;52.334;9.506;2022-10-31T17:55:22;15.40;99.90
22319;DHT22;11327;52.334;9.506;2022-10-31T17:58:44;15.30;99.90
22319;DHT22;11327;52.334;9.506;2022-10-31T18:02:05;15.30;99.90
22319;DHT22;11327;52.334;9.506;2022-10-31T18:05:28;15.30;99.90
22319;DHT22;11327;52.334;9.506;2022-10-31T18:08:48;15.30;99.90
22319;DHT22;11327;52.334;9.506;2022-10-31T18:12:09;15.30;99.90
22319;DHT22;11327;52.334;9.506;2022-10-31T18:15:30;15.50;99.90
22319;DHT22;11327;52.334;9.506;2022-10-31T18:18:53;15.40;99.90
22319;DHT22;11327;52.334;9.506;2022-10-31T18:22:15;15.40;99.90
22319;DHT22;11327;52.334;9.506;2022-10-31T18:25:36;15.40;99.90
22319;DHT22;11327;52.334;9.506;2022-10-31T18:28:59;15.30;99.90
22319;DHT22;11327;52.334;9.506;2022-10-31T18:32:20;15.30;99.90
22319;DHT22;11327;52.334;9.506;2022-10-31T18:35:41;15.20;99.90
22319;DHT22;11327;52.334;9.506;2022-10-31T18:39:02;15.10;99.90
22319;DHT22;11327;52.334;9.506;2022-10-31T18:42:23;15.20;99.90
22319;DHT22;11327;52.334;9.506;2022-10-31T18:45:44;15.10;99.90
22319;DHT22;11327;52.334;9.506;2022-10-31T18:49:06;15.10;99.90
22319;DHT22;11327;52.334;9.506;2022-10-31T18:52:27;15.10;99.90
22319;DHT22;11327;52.334;9.506;2022-10-31T18:55:48;15.00;99.90
22319;DHT22;11327;52.334;9.506;2022-10-31T18:59:10;15.00;99.90
22319;DHT22;11327;52.334;9.506;2022-10-31T19:02:31;15.00;99.90
22319;DHT22;11327;52.334;9.506;2022-10-31T19:05:53;15.00;99.90
22319;DHT22;11327;52.334;9.506;2022-10-31T19:09:15;15.00;99.90
22319;DHT22;11327;52.334;9.506;2022-10-31T19:12:36;14.90;99.90
22319;DHT22;11327;52.334;9.506;2022-10-31T19:16:03;14.90;99.90
22319;DHT22;11327;52.334;9.506;2022-10-31T19:19:24;14.90;99.90
22319;DHT22;11327;52.334;9.506;2022-10-31T19:22:45;14.80;99.90
22319;DHT22;11327;52.334;9.506;2022-10-31T19:26:06;14.80;99.90
22319;DHT22;11327;52.334;9.506;2022-10-31T19:29:27;14.80;99.90
22319;DHT22;11327;52.334;9.506;2022-10-31T19:32:54;14.70;99.90
22319;DHT22;11327;52.334;9.506;2022-10-31T19:36:15;14.70;99.90
22319;DHT22;11327;52.334;9.506;2022-10-31T19:39:38;14.70;99.90
22319;DHT22;11327;52.334;9.506;2022-10-31T19:42:59;14.70;99.90
22319;DHT22;11327;52.334;9.506;2022-10-31T19:46:21;14.70;99.90
22319;DHT22;11327;52.334;9.506;2022-10-31T19:49:43;14.70;99.90
22319;DHT22;11327;52.334;9.506;2022-10-31T19:53:04;14.70;99.90
22319;DHT22;11327;52.334;9.506;2022-10-31T19:56:26;14.60;99.90
22319;DHT22;11327;52.334;9.506;2022-10-31T19:59:47;14.70;99.90
22319;DHT22;11327;52.334;9.506;2022-10-31T20:03:09;14.60;99.90
22319;DHT22;11327;52.334;9.506;2022-10-31T20:06:36;14.70;99.90
22319;DHT22;11327;52.334;9.506;2022-10-31T20:09:54;14.70;99.90
22319;DHT22;11327;52.334;9.506;2022-10-31T20:13:15;14.60;99.90
22319;DHT22;11327;52.334;9.506;2022-10-31T20:16:36;14.70;99.90
22319;DHT22;11327;52.334;9.506;2022-10-31T20:19:57;14.70;99.90
22319;DHT22;11327;52.334;9.506;2022-10-31T20:23:19;14.70;99.90
22319;DHT22;11327;52.334;9.506;2022-10-31T20:26:40;14.60;99.90
22319;DHT22;11327;52.334;9.506;2022-10-31T20:30:01;14.70;99.90
22319;DHT22;11327;52.334;9.506;2022-10-31T20:33:22;14.70;99.90
22319;DHT22;11327;52.334;9.506;2022-10-31T20:36:43;14.60;99.90
22319;DHT22;11327;52.334;9.506;2022-10-31T20:40:06;14.70;99.90
22319;DHT22;11327;52.334;9.506;2022-10-31T20:43:27;14.70;99.90
22319;DHT22;11327;52.334;9.506;2022-10-31T20:46:48;14.70;99.90
22319;DHT22;11327;52.334;9.506;2022-10-31T20:50:09;14.60;99.90
22319;DHT22;11327;52.334;9.506;2022-10-31T20:53:31;14.60;99.90
22319;DHT22;11327;52.334;9.506;2022-10-31T20:56:52;14.60;99.90
22319;DHT22;11327;52.334;9.506;2022-10-31T21:00:14;14.60;99.90
22319;DHT22;11327;52.334;9.506;2022-10-31T21:03:35;14.60;99.90
22319;DHT22;11327;52.334;9.506;2022-10-31T21:06:56;14.60;99.90
22319;DHT22;11327;52.334;9.506;2022-10-31T21:10:17;14.60;99.90
22319;DHT22;11327;52.334;9.506;2022-10-31T21:13:39;14.60;99.90
22319;DHT22;11327;52.334;9.506;2022-10-31T21:17:00;14.50;99.90
22319;DHT22;11327;52.334;9.506;2022-10-31T21:20:22;14.50;99.90
22319;DHT22;11327;52.334;9.506;2022-10-31T21:23:42;14.60;99.90
22319;DHT22;11327;52.334;9.506;2022-10-31T21:27:04;14.60;99.90
22319;DHT22;11327;52.334;9.506;2022-10-31T21:30:25;14.50;99.90
22319;DHT22;11327;52.334;9.506;2022-10-31T21:33:46;14.50;99.90
22319;DHT22;11327;52.334;9.506;2022-10-31T21:37:07;14.40;99.90
22319;DHT22;11327;52.334;9.506;2022-10-31T21:40:28;14.40;99.90
22319;DHT22;11327;52.334;9.506;2022-10-31T21:43:50;14.40;99.90
22319;DHT22;11327;52.334;9.506;2022-10-31T21:47:13;14.40;99.90
22319;DHT22;11327;52.334;9.506;2022-10-31T21:50:34;14.40;99.90
22319;DHT22;11327;52.334;9.506;2022-10-31T21:53:56;14.40;99.90
22319;DHT22;11327;52.334;9.506;2022-10-31T21:57:36;14.40;99.90
22319;DHT22;11327;52.334;9.506;2022-10-31T22:01:02;14.20;99.90
22319;DHT22;11327;52.334;9.506;2022-10-31T22:04:23;14.20;99.90
22319;DHT22;11327;52.334;9.506;2022-10-31T22:07:44;14.30;99.90
22319;DHT22;11327;52.334;9.506;2022-10-31T22:11:08;14.20;99.90
22319;DHT22;11327;52.334;9.506;2022-10-31T22:14:29;14.20;99.90
22319;DHT22;11327;52.334;9.506;2022-10-31T22:17:50;14.10;99.90
22319;DHT22;11327;52.334;9.506;2022-10-31T22:21:15;14.10;99.90
22319;DHT22;11327;52.334;9.506;2022-10-31T22:24:37;14.00;99.90
22319;DHT22;11327;52.334;9.506;2022-10-31T22:27:58;14.00;99.90
22319;DHT22;11327;52.334;9.506;2022-10-31T22:31:22;13.90;99.90
22319;DHT22;11327;52.334;9.506;2022-10-31T22:34:43;13.90;99.90
22319;DHT22;11327;52.334;9.506;2022-10-31T22:38:04;13.90;99.90
22319;DHT22;11327;52.334;9.506;2022-10-31T22:41:27;13.90;99.90
22319;DHT22;11327;52.334;9.506;2022-10-31T22:44:48;13.90;99.90
22319;DHT22;11327;52.334;9.506;2022-10-31T22:48:09;13.90;99.90
22319;DHT22;11327;52.334;9.506;2022-10-31T22:51:33;13.90;99.90
22319;DHT22;11327;52.334;9.506;2022-10-31T22:54:54;13.90;99.90
22319;DHT22;11327;52.334;9.506;2022-10-31T22:58:15;13.90;99.90
22319;DHT22;11327;52.334;9.506;2022-10-31T23:01:36;13.90;99.90
22319;DHT22;11327;52.334;9.506;2022-10-31T23:04:57;13.80;99.90
22319;DHT22;11327;52.334;9.506;2022-10-31T23:08:18;13.80;99.90
22319;DHT22;11327;52.334;9.506;2022-10-31T23:11:40;13.70;99.90
22319;DHT22;11327;52.334;9.506;2022-10-31T23:15:01;13.70;99.90
22319;DHT22;11327;52.334;9.506;2022-10-31T23:18:22;13.60;99.90
22319;DHT22;11327;52.334;9.506;2022-10-31T23:21:45;13.60;99.90
22319;DHT22;11327;52.334;9.506;2022-10-31T23:25:17;13.60;99.90
22319;DHT22;11327;52.334;9.506;2022-10-31T23:28:57;13.60;99.90
22319;DHT22;11327;52.334;9.506;2022-10-31T23:35:46;13.50;99.90
22319;DHT22;11327;52.334;9.506;2022-10-31T23:39:07;13.50;99.90
22319;DHT22;11327;52.334;9.506;2022-10-31T23:42:28;13.50;99.90
22319;DHT22;11327;52.334;9.506;2022-10-31T23:45:49;13.60;99.90
22319;DHT22;11327;52.334;9.506;2022-10-31T23:49:10;13.60;99.90
22319;DHT22;11327;52.334;9.506;2022-10-31T23:52:31;13.60;99.90
22319;DHT22;11327;52.334;9.506;2022-10-31T23:55:55;13.50;99.90
22319;DHT22;11327;52.334;9.506;2022-10-31T23:59:16;13.50;99.90
